createdAt,value
2019-05-11T00:00:43.155Z,8.10
2019-05-11T00:01:43.136Z,8.07
2019-05-11T00:02:43.115Z,7.96
2019-05-11T00:03:43.102Z,8.07
2019-05-11T00:04:43.088Z,8.04
2019-05-11T00:05:43.084Z,8.09
2019-05-11T00:06:43.086Z,8.06
2019-05-11T00:07:43.056Z,8.00
2019-05-11T00:08:43.045Z,7.96
2019-05-11T00:09:56.889Z,8.06
2019-05-11T00:10:44.040Z,8.00
2019-05-11T00:11:43.015Z,8.02
2019-05-11T00:12:43.003Z,8.06
2019-05-11T00:13:42.996Z,8.03
2019-05-11T00:14:43.005Z,7.99
2019-05-11T00:15:42.968Z,8.10
2019-05-11T00:16:42.965Z,8.12
2019-05-11T00:17:42.951Z,8.13
2019-05-11T00:18:42.939Z,8.06
2019-05-11T00:19:42.927Z,8.07
2019-05-11T00:20:42.937Z,8.12
2019-05-11T00:21:42.918Z,8.13
2019-05-11T00:22:42.892Z,8.07
2019-05-11T00:23:42.880Z,8.06
2019-05-11T00:24:42.868Z,8.10
2019-05-11T00:25:42.868Z,8.06
2019-05-11T00:26:42.858Z,8.03
2019-05-11T00:27:42.855Z,8.09
2019-05-11T00:28:42.825Z,8.07
2019-05-11T00:29:42.816Z,8.12
2019-05-11T00:30:42.802Z,8.07
2019-05-11T00:31:42.792Z,8.10
2019-05-11T00:32:42.786Z,8.12
2019-05-11T00:33:42.781Z,8.18
2019-05-11T00:34:42.770Z,8.00
2019-05-11T00:35:42.763Z,8.12
2019-05-11T00:36:42.734Z,8.12
2019-05-11T00:37:42.724Z,8.07
2019-05-11T00:38:42.716Z,8.10
2019-05-11T00:39:42.751Z,8.12
2019-05-11T00:40:42.692Z,8.12
2019-05-11T00:41:42.681Z,8.12
2019-05-11T00:42:42.676Z,8.17
2019-05-11T00:43:42.658Z,8.10
2019-05-11T00:44:42.648Z,8.17
2019-05-11T00:45:42.654Z,8.06
2019-05-11T00:46:42.646Z,8.13
2019-05-11T00:47:42.623Z,8.13
2019-05-11T00:48:42.602Z,8.18
2019-05-11T00:49:42.591Z,8.13
2019-05-11T00:50:42.579Z,8.14
2019-05-11T00:51:42.590Z,8.20
2019-05-11T00:52:42.605Z,8.14
2019-05-11T00:53:42.548Z,8.20
2019-05-11T00:54:42.542Z,8.20
2019-05-11T00:55:42.530Z,8.21
2019-05-11T00:56:42.515Z,8.22
2019-05-11T00:57:42.505Z,8.17
2019-05-11T00:58:42.527Z,8.25
2019-05-11T00:59:42.480Z,8.22
2019-05-11T01:00:42.470Z,8.18
2019-05-11T01:01:42.468Z,8.29
2019-05-11T01:02:42.452Z,8.21
2019-05-11T01:03:42.443Z,8.18
2019-05-11T01:04:42.466Z,8.21
2019-05-11T01:05:42.426Z,8.20
2019-05-11T01:06:42.404Z,8.20
2019-05-11T01:07:42.397Z,8.22
2019-05-11T01:08:42.386Z,8.24
2019-05-11T01:09:42.373Z,8.20
2019-05-11T01:10:42.883Z,8.18
2019-05-11T01:11:42.351Z,8.22
2019-05-11T01:12:42.371Z,8.27
2019-05-11T01:13:42.329Z,8.18
2019-05-11T01:14:42.317Z,8.17
2019-05-11T01:15:42.319Z,8.24
2019-05-11T01:16:42.296Z,8.18
2019-05-11T01:17:42.283Z,8.22
2019-05-11T01:18:42.288Z,8.20
2019-05-11T01:19:42.261Z,8.20
2019-05-11T01:20:42.248Z,8.21
2019-05-11T01:21:42.249Z,8.22
2019-05-11T01:22:42.232Z,8.21
2019-05-11T01:23:42.229Z,8.22
2019-05-11T01:24:42.208Z,8.22
2019-05-11T01:25:42.196Z,8.17
2019-05-11T01:26:42.185Z,8.20
2019-05-11T01:27:42.172Z,8.20
2019-05-11T01:28:42.182Z,8.22
2019-05-11T01:29:42.155Z,8.17
2019-05-11T01:30:42.140Z,8.20
2019-05-11T01:31:42.155Z,8.28
2019-05-11T01:32:42.119Z,8.20
2019-05-11T01:33:42.132Z,8.24
2019-05-11T01:34:42.103Z,8.20
2019-05-11T01:35:42.085Z,8.21
2019-05-11T01:36:42.598Z,8.18
2019-05-11T01:37:42.068Z,8.28
2019-05-11T01:38:42.055Z,8.27
2019-05-11T01:39:42.054Z,8.24
2019-05-11T01:40:56.513Z,8.22
2019-05-11T01:41:43.047Z,8.17
2019-05-11T01:42:42.008Z,8.20
2019-05-11T01:43:41.997Z,8.24
2019-05-11T01:44:42.019Z,8.28
2019-05-11T01:45:41.974Z,8.28
2019-05-11T01:46:41.971Z,8.21
2019-05-11T01:47:41.963Z,8.27
2019-05-11T01:48:41.941Z,8.21
2019-05-11T01:49:41.946Z,8.34
2019-05-11T01:50:41.919Z,8.17
2019-05-11T01:51:41.908Z,8.22
2019-05-11T01:52:41.900Z,8.21
2019-05-11T01:53:41.945Z,8.27
2019-05-11T01:54:41.907Z,8.27
2019-05-11T01:55:41.865Z,8.28
2019-05-11T01:56:41.863Z,8.29
2019-05-11T01:57:41.843Z,8.31
2019-05-11T01:58:41.832Z,8.31
2019-05-11T01:59:41.822Z,8.37
2019-05-11T02:00:41.828Z,8.32
2019-05-11T02:01:41.800Z,8.34
2019-05-11T02:02:41.789Z,8.28
2019-05-11T02:03:41.778Z,8.32
2019-05-11T02:04:41.765Z,8.32
2019-05-11T02:05:41.771Z,8.25
2019-05-11T02:06:41.746Z,8.29
2019-05-11T02:07:41.730Z,8.31
2019-05-11T02:08:41.720Z,8.25
2019-05-11T02:09:41.710Z,8.34
2019-05-11T02:10:41.715Z,8.28
2019-05-11T02:11:41.688Z,8.34
2019-05-11T02:12:41.680Z,8.27
2019-05-11T02:13:41.670Z,8.31
2019-05-11T02:14:41.657Z,8.27
2019-05-11T02:15:41.646Z,8.39
2019-05-11T02:16:41.647Z,8.31
2019-05-11T02:17:41.621Z,8.29
2019-05-11T02:18:41.613Z,8.32
2019-05-11T02:19:41.605Z,8.32
2019-05-11T02:20:41.603Z,8.37
2019-05-11T02:21:41.616Z,8.36
2019-05-11T02:22:41.587Z,8.39
2019-05-11T02:23:41.562Z,8.39
2019-05-11T02:24:41.542Z,8.40
2019-05-11T02:25:41.538Z,8.43
2019-05-11T02:26:41.527Z,8.43
2019-05-11T02:27:41.518Z,8.42
2019-05-11T02:28:41.515Z,8.43
2019-05-11T02:29:41.826Z,8.42
2019-05-11T02:30:41.479Z,8.42
2019-05-11T02:31:41.468Z,8.46
2019-05-11T02:32:41.460Z,8.45
2019-05-11T02:33:41.498Z,8.46
2019-05-11T02:34:41.441Z,8.39
2019-05-11T02:35:41.442Z,8.45
2019-05-11T02:36:41.467Z,8.40
2019-05-11T02:37:41.410Z,8.40
2019-05-11T02:38:41.411Z,8.32
2019-05-11T02:39:41.392Z,8.36
2019-05-11T02:40:41.375Z,8.40
2019-05-11T02:41:41.359Z,8.37
2019-05-11T02:42:41.375Z,8.37
2019-05-11T02:43:41.334Z,8.39
2019-05-11T02:44:41.330Z,8.39
2019-05-11T02:45:41.313Z,8.37
2019-05-11T02:46:41.319Z,8.39
2019-05-11T02:47:41.293Z,8.40
2019-05-11T02:48:41.281Z,8.37
2019-05-11T02:49:41.268Z,8.37
2019-05-11T02:50:41.283Z,8.39
2019-05-11T02:51:41.292Z,8.34
2019-05-11T02:52:41.253Z,8.39
2019-05-11T02:53:41.244Z,8.36
2019-05-11T02:54:41.219Z,8.34
2019-05-11T02:55:41.215Z,8.37
2019-05-11T02:56:41.220Z,8.34
2019-05-11T02:57:41.179Z,8.34
2019-05-11T02:58:41.173Z,8.36
2019-05-11T02:59:41.166Z,8.40
2019-05-11T03:00:41.275Z,8.36
2019-05-11T03:01:41.138Z,8.34
2019-05-11T03:02:41.138Z,8.34
2019-05-11T03:03:41.114Z,8.37
2019-05-11T03:04:41.108Z,8.42
2019-05-11T03:05:41.093Z,8.29
2019-05-11T03:06:41.082Z,8.39
2019-05-11T03:07:41.082Z,8.34
2019-05-11T03:08:41.162Z,8.34
2019-05-11T03:09:41.047Z,8.34
2019-05-11T03:10:41.042Z,8.36
2019-05-11T03:11:55.119Z,8.31
2019-05-11T03:12:42.018Z,8.28
2019-05-11T03:13:41.048Z,8.34
2019-05-11T03:14:41.008Z,8.32
2019-05-11T03:15:41.002Z,8.45
2019-05-11T03:16:41.019Z,8.39
2019-05-11T03:17:40.966Z,8.39
2019-05-11T03:18:40.972Z,8.39
2019-05-11T03:19:40.954Z,8.37
2019-05-11T03:20:40.931Z,8.39
2019-05-11T03:21:40.925Z,8.40
2019-05-11T03:22:40.914Z,8.45
2019-05-11T03:23:40.900Z,8.47
2019-05-11T03:24:40.896Z,8.42
2019-05-11T03:25:40.871Z,8.46
2019-05-11T03:26:40.871Z,8.46
2019-05-11T03:27:40.858Z,8.43
2019-05-11T03:28:40.852Z,8.42
2019-05-11T03:29:40.833Z,8.45
2019-05-11T03:30:40.972Z,8.45
2019-05-11T03:31:40.808Z,8.46
2019-05-11T03:32:40.837Z,8.46
2019-05-11T03:33:40.915Z,8.46
2019-05-11T03:34:40.788Z,8.42
2019-05-11T03:35:40.808Z,8.37
2019-05-11T03:36:40.751Z,8.45
2019-05-11T03:37:40.742Z,8.37
2019-05-11T03:38:40.730Z,8.49
2019-05-11T03:39:40.735Z,8.45
2019-05-11T03:40:40.734Z,8.43
2019-05-11T03:41:40.698Z,8.42
2019-05-11T03:42:40.684Z,8.40
2019-05-11T03:43:40.679Z,8.42
2019-05-11T03:44:40.664Z,8.40
2019-05-11T03:45:40.666Z,8.40
2019-05-11T03:46:40.658Z,8.43
2019-05-11T03:47:40.636Z,8.46
2019-05-11T03:48:40.621Z,8.39
2019-05-11T03:49:40.609Z,8.37
2019-05-11T03:50:40.610Z,8.42
2019-05-11T03:51:40.604Z,8.34
2019-05-11T03:52:40.578Z,8.34
2019-05-11T03:53:41.088Z,8.42
2019-05-11T03:54:40.560Z,8.42
2019-05-11T03:55:40.560Z,8.31
2019-05-11T03:56:40.530Z,8.34
2019-05-11T03:57:40.530Z,8.43
2019-05-11T03:58:40.510Z,8.37
2019-05-11T03:59:40.502Z,8.34
2019-05-11T04:00:40.524Z,8.39
2019-05-11T04:01:40.485Z,8.32
2019-05-11T04:02:40.466Z,8.39
2019-05-11T04:03:40.459Z,8.39
2019-05-11T04:04:40.445Z,8.31
2019-05-11T04:05:40.438Z,8.36
2019-05-11T04:06:40.436Z,8.36
2019-05-11T04:07:40.426Z,8.37
2019-05-11T04:08:40.407Z,8.32
2019-05-11T04:09:40.394Z,8.37
2019-05-11T04:10:40.378Z,8.40
2019-05-11T04:11:40.383Z,8.32
2019-05-11T04:12:40.362Z,8.42
2019-05-11T04:13:40.347Z,8.32
2019-05-11T04:14:40.332Z,8.34
2019-05-11T04:15:40.355Z,8.39
2019-05-11T04:16:40.316Z,8.37
2019-05-11T04:17:40.302Z,8.36
2019-05-11T04:18:40.290Z,8.40
2019-05-11T04:19:40.279Z,8.37
2019-05-11T04:20:40.275Z,8.36
2019-05-11T04:21:40.300Z,8.42
2019-05-11T04:22:40.281Z,8.43
2019-05-11T04:23:40.238Z,8.39
2019-05-11T04:24:40.227Z,8.39
2019-05-11T04:25:40.234Z,8.37
2019-05-11T04:26:40.201Z,8.39
2019-05-11T04:27:40.197Z,8.42
2019-05-11T04:28:40.200Z,8.32
2019-05-11T04:29:40.175Z,8.43
2019-05-11T04:30:40.158Z,8.42
2019-05-11T04:31:40.157Z,8.37
2019-05-11T04:32:40.165Z,8.36
2019-05-11T04:33:40.125Z,8.40
2019-05-11T04:34:40.118Z,8.39
2019-05-11T04:35:40.105Z,8.34
2019-05-11T04:36:40.091Z,8.45
2019-05-11T04:37:40.081Z,8.36
2019-05-11T04:38:40.083Z,8.42
2019-05-11T04:39:40.074Z,8.43
2019-05-11T04:40:40.052Z,8.34
2019-05-11T04:41:40.045Z,8.32
2019-05-11T04:42:54.247Z,8.40
2019-05-11T04:43:41.025Z,8.45
2019-05-11T04:44:40.017Z,8.43
2019-05-11T04:45:40.002Z,8.45
2019-05-11T04:46:39.992Z,8.46
2019-05-11T04:47:39.972Z,8.46
2019-05-11T04:48:39.974Z,8.43
2019-05-11T04:49:39.952Z,8.43
2019-05-11T04:50:39.956Z,8.47
2019-05-11T04:51:39.933Z,8.50
2019-05-11T04:52:39.945Z,8.47
2019-05-11T04:53:39.918Z,8.57
2019-05-11T04:54:39.900Z,8.50
2019-05-11T04:55:39.902Z,8.49
2019-05-11T04:56:39.881Z,8.54
2019-05-11T04:57:39.877Z,8.50
2019-05-11T04:58:39.857Z,8.47
2019-05-11T04:59:39.846Z,8.64
2019-05-11T05:00:39.866Z,8.50
2019-05-11T05:01:39.862Z,8.58
2019-05-11T05:02:39.848Z,8.63
2019-05-11T05:03:41.305Z,8.55
2019-05-11T05:04:39.798Z,8.64
2019-05-11T05:05:39.800Z,8.58
2019-05-11T05:06:39.789Z,8.58
2019-05-11T05:07:48.097Z,8.50
2019-05-11T05:08:40.749Z,8.54
2019-05-11T05:09:42.390Z,8.60
2019-05-11T05:10:39.742Z,8.68
2019-05-11T05:11:39.721Z,8.63
2019-05-11T05:12:39.720Z,8.64
2019-05-11T05:13:39.699Z,8.67
2019-05-11T05:14:39.694Z,8.61
2019-05-11T05:15:39.710Z,8.61
2019-05-11T05:16:39.669Z,8.68
2019-05-11T05:17:39.654Z,8.68
2019-05-11T05:18:39.641Z,8.76
2019-05-11T05:19:39.641Z,8.76
2019-05-11T05:20:40.671Z,8.71
2019-05-11T05:21:39.707Z,8.75
2019-05-11T05:22:39.598Z,8.67
2019-05-11T05:23:39.591Z,8.78
2019-05-11T05:24:39.577Z,8.73
2019-05-11T05:25:39.563Z,8.85
2019-05-11T05:26:39.568Z,8.82
2019-05-11T05:27:39.543Z,8.80
2019-05-11T05:28:39.563Z,8.88
2019-05-11T05:29:39.521Z,8.82
2019-05-11T05:30:39.509Z,8.85
2019-05-11T05:31:39.501Z,8.76
2019-05-11T05:32:39.484Z,8.85
2019-05-11T05:33:39.483Z,8.83
2019-05-11T05:34:39.481Z,8.76
2019-05-11T05:35:39.456Z,8.82
2019-05-11T05:36:39.442Z,8.76
2019-05-11T05:37:39.430Z,8.83
2019-05-11T05:38:39.428Z,8.82
2019-05-11T05:39:39.409Z,8.88
2019-05-11T05:40:39.399Z,8.91
2019-05-11T05:41:39.398Z,8.93
2019-05-11T05:42:39.387Z,8.91
2019-05-11T05:43:39.361Z,8.91
2019-05-11T05:44:39.440Z,8.89
2019-05-11T05:45:39.346Z,8.93
2019-05-11T05:46:39.336Z,8.91
2019-05-11T05:47:39.358Z,8.89
2019-05-11T05:48:39.305Z,8.97
2019-05-11T05:49:39.301Z,8.96
2019-05-11T05:50:39.298Z,8.91
2019-05-11T05:51:39.273Z,8.98
2019-05-11T05:52:39.261Z,8.96
2019-05-11T05:53:39.259Z,8.98
2019-05-11T05:54:39.252Z,9.03
2019-05-11T05:55:39.223Z,9.01
2019-05-11T05:56:39.215Z,9.04
2019-05-11T05:57:39.216Z,9.04
2019-05-11T05:58:39.199Z,9.03
2019-05-11T05:59:39.207Z,9.01
2019-05-11T06:00:39.178Z,9.03
2019-05-11T06:01:39.161Z,9.13
2019-05-11T06:02:39.322Z,9.13
2019-05-11T06:03:39.142Z,9.16
2019-05-11T06:04:39.129Z,9.04
2019-05-11T06:05:39.125Z,9.13
2019-05-11T06:06:39.107Z,9.10
2019-05-11T06:07:39.217Z,9.12
2019-05-11T06:08:43.023Z,9.04
2019-05-11T06:09:39.072Z,9.03
2019-05-11T06:10:39.080Z,9.13
2019-05-11T06:11:39.051Z,9.17
2019-05-11T06:12:39.040Z,9.15
2019-05-11T06:13:45.318Z,9.26
2019-05-11T06:14:40.016Z,9.19
2019-05-11T06:15:39.013Z,9.30
2019-05-11T06:16:39.006Z,9.23
2019-05-11T06:17:38.984Z,9.20
2019-05-11T06:18:38.977Z,9.24
2019-05-11T06:19:38.963Z,9.24
2019-05-11T06:20:38.962Z,9.31
2019-05-11T06:21:38.944Z,9.31
2019-05-11T06:22:38.931Z,9.27
2019-05-11T06:23:38.921Z,9.35
2019-05-11T06:24:38.910Z,9.30
2019-05-11T06:25:38.925Z,9.31
2019-05-11T06:26:38.885Z,9.31
2019-05-11T06:27:38.885Z,9.40
2019-05-11T06:28:38.865Z,9.41
2019-05-11T06:29:38.858Z,9.37
2019-05-11T06:30:39.061Z,9.37
2019-05-11T06:31:38.831Z,9.41
2019-05-11T06:32:38.839Z,9.45
2019-05-11T06:33:38.818Z,9.52
2019-05-11T06:34:38.799Z,9.53
2019-05-11T06:35:38.796Z,9.60
2019-05-11T06:36:38.774Z,9.55
2019-05-11T06:37:38.767Z,9.63
2019-05-11T06:38:38.768Z,9.67
2019-05-11T06:39:38.744Z,9.67
2019-05-11T06:40:38.747Z,9.74
2019-05-11T06:41:38.732Z,9.73
2019-05-11T06:42:38.713Z,9.80
2019-05-11T06:43:38.775Z,9.77
2019-05-11T06:44:38.718Z,9.74
2019-05-11T06:45:38.685Z,9.78
2019-05-11T06:46:38.672Z,9.75
2019-05-11T06:47:38.656Z,9.80
2019-05-11T06:48:38.656Z,9.80
2019-05-11T06:49:38.634Z,9.85
2019-05-11T06:50:39.171Z,9.93
2019-05-11T06:51:40.526Z,9.95
2019-05-11T06:52:38.600Z,9.95
2019-05-11T06:53:38.588Z,10.07
2019-05-11T06:54:38.575Z,10.07
2019-05-11T06:55:38.644Z,9.98
2019-05-11T06:56:38.597Z,9.93
2019-05-11T06:57:38.556Z,9.92
2019-05-11T06:58:38.533Z,9.98
2019-05-11T06:59:38.546Z,9.93
2019-05-11T07:00:38.510Z,9.89
2019-05-11T07:01:38.505Z,9.93
2019-05-11T07:02:38.487Z,9.95
2019-05-11T07:03:38.481Z,9.91
2019-05-11T07:04:38.471Z,9.86
2019-05-11T07:05:38.468Z,9.96
2019-05-11T07:06:38.449Z,9.95
2019-05-11T07:07:46.965Z,10.07
2019-05-11T07:08:39.432Z,10.06
2019-05-11T07:09:38.409Z,10.09
2019-05-11T07:10:38.399Z,9.99
2019-05-11T07:11:38.407Z,10.07
2019-05-11T07:12:38.377Z,10.04
2019-05-11T07:13:38.368Z,10.02
2019-05-11T07:14:38.368Z,10.11
2019-05-11T07:15:38.345Z,10.11
2019-05-11T07:16:38.352Z,10.20
2019-05-11T07:17:38.329Z,10.10
2019-05-11T07:18:38.363Z,10.22
2019-05-11T07:19:38.320Z,10.20
2019-05-11T07:20:50.241Z,10.20
2019-05-11T07:21:39.289Z,10.26
2019-05-11T07:22:38.274Z,10.29
2019-05-11T07:23:38.258Z,10.28
2019-05-11T07:24:38.272Z,10.29
2019-05-11T07:25:38.239Z,10.34
2019-05-11T07:26:38.234Z,10.38
2019-05-11T07:27:38.225Z,10.34
2019-05-11T07:28:38.210Z,10.36
2019-05-11T07:29:38.207Z,10.42
2019-05-11T07:30:38.198Z,10.32
2019-05-11T07:31:38.199Z,10.35
2019-05-11T07:32:38.401Z,10.35
2019-05-11T07:33:38.150Z,10.43
2019-05-11T07:34:38.439Z,10.38
2019-05-11T07:35:38.586Z,10.32
2019-05-11T07:36:38.791Z,10.38
2019-05-11T07:37:38.675Z,10.42
2019-05-11T07:38:38.307Z,10.55
2019-05-11T07:39:38.440Z,10.51
2019-05-11T07:40:38.583Z,10.47
2019-05-11T07:41:38.787Z,10.47
2019-05-11T07:42:38.271Z,10.47
2019-05-11T07:43:38.214Z,10.49
2019-05-11T07:44:41.472Z,10.54
2019-05-11T07:45:38.704Z,10.58
2019-05-11T07:46:38.020Z,10.58
2019-05-11T07:47:38.208Z,10.58
2019-05-11T07:48:38.743Z,10.68
2019-05-11T07:49:38.371Z,10.72
2019-05-11T07:50:38.709Z,10.76
2019-05-11T07:51:38.898Z,10.70
2019-05-11T07:52:38.110Z,10.72
2019-05-11T07:53:38.240Z,10.73
2019-05-11T07:54:38.636Z,10.78
2019-05-11T07:55:38.470Z,10.76
2019-05-11T07:56:39.067Z,10.75
2019-05-11T07:57:39.120Z,10.81
2019-05-11T07:58:38.779Z,10.84
2019-05-11T07:59:38.271Z,10.90
2019-05-11T08:00:39.903Z,10.83
2019-05-11T08:01:38.710Z,10.81
2019-05-11T08:02:38.741Z,10.80
2019-05-11T08:03:38.900Z,10.93
2019-05-11T08:04:38.013Z,10.91
2019-05-11T08:05:38.581Z,10.91
2019-05-11T08:06:39.069Z,10.95
2019-05-11T08:07:38.043Z,10.98
2019-05-11T08:08:38.417Z,11.02
2019-05-11T08:09:38.160Z,11.02
2019-05-11T08:10:39.109Z,11.05
2019-05-11T08:11:38.822Z,11.11
2019-05-11T08:12:39.200Z,11.08
2019-05-11T08:13:38.875Z,11.02
2019-05-11T08:14:55.737Z,11.05
2019-05-11T08:15:38.687Z,11.03
2019-05-11T08:16:39.037Z,11.11
2019-05-11T08:17:38.148Z,11.09
2019-05-11T08:18:38.751Z,11.06
2019-05-11T08:19:38.449Z,11.08
2019-05-11T08:20:38.511Z,11.12
2019-05-11T08:21:38.905Z,11.09
2019-05-11T08:22:37.876Z,11.09
2019-05-11T08:23:37.836Z,11.13
2019-05-11T08:24:37.869Z,11.13
2019-05-11T08:25:38.001Z,11.16
2019-05-11T08:26:38.627Z,11.16
2019-05-11T08:27:37.925Z,11.28
2019-05-11T08:28:38.186Z,11.28
2019-05-11T08:29:38.435Z,11.30
2019-05-11T08:30:38.149Z,11.23
2019-05-11T08:31:38.448Z,11.28
2019-05-11T08:32:38.680Z,11.33
2019-05-11T08:33:38.902Z,11.27
2019-05-11T08:34:39.637Z,11.30
2019-05-11T08:35:38.967Z,11.31
2019-05-11T08:36:37.928Z,11.36
2019-05-11T08:37:38.783Z,11.38
2019-05-11T08:38:37.937Z,11.38
2019-05-11T08:39:38.019Z,11.41
2019-05-11T08:40:37.977Z,11.35
2019-05-11T08:41:38.452Z,11.35
2019-05-11T08:42:37.993Z,11.28
2019-05-11T08:43:38.896Z,11.30
2019-05-11T08:44:37.982Z,11.21
2019-05-11T08:45:39.289Z,11.28
2019-05-11T08:46:38.631Z,11.27
2019-05-11T08:47:37.825Z,11.20
2019-05-11T08:48:38.879Z,11.21
2019-05-11T08:49:38.080Z,11.30
2019-05-11T08:50:38.221Z,11.30
2019-05-11T08:51:38.586Z,11.23
2019-05-11T08:52:38.612Z,11.33
2019-05-11T08:53:38.695Z,11.31
2019-05-11T08:54:38.209Z,11.31
2019-05-11T08:55:38.135Z,11.27
2019-05-11T08:56:38.279Z,11.30
2019-05-11T08:57:38.811Z,11.23
2019-05-11T08:58:38.042Z,11.38
2019-05-11T08:59:38.081Z,11.30
2019-05-11T09:00:38.906Z,11.38
2019-05-11T09:01:39.337Z,11.42
2019-05-11T09:02:38.321Z,11.46
2019-05-11T09:03:38.758Z,11.54
2019-05-11T09:04:41.613Z,11.51
2019-05-11T09:05:38.435Z,11.53
2019-05-11T09:06:37.766Z,11.57
2019-05-11T09:07:38.404Z,11.63
2019-05-11T09:08:38.832Z,11.57
2019-05-11T09:09:37.983Z,11.59
2019-05-11T09:10:39.681Z,11.74
2019-05-11T09:11:38.875Z,11.67
2019-05-11T09:12:38.262Z,11.70
2019-05-11T09:13:39.238Z,11.70
2019-05-11T09:14:38.743Z,11.84
2019-05-11T09:15:40.487Z,11.74
2019-05-11T09:16:38.329Z,11.84
2019-05-11T09:17:38.181Z,11.88
2019-05-11T09:18:38.610Z,11.88
2019-05-11T09:19:38.777Z,11.94
2019-05-11T09:20:37.800Z,11.96
2019-05-11T09:21:38.307Z,12.05
2019-05-11T09:22:38.152Z,12.11
2019-05-11T09:23:39.952Z,12.16
2019-05-11T09:24:38.617Z,12.13
2019-05-11T09:25:38.521Z,12.15
2019-05-11T09:26:38.840Z,12.11
2019-05-11T09:27:37.622Z,12.22
2019-05-11T09:28:38.465Z,12.33
2019-05-11T09:29:38.695Z,12.34
2019-05-11T09:30:37.832Z,12.26
2019-05-11T09:31:38.146Z,12.38
2019-05-11T09:32:38.428Z,12.37
2019-05-11T09:33:38.614Z,12.31
2019-05-11T09:34:37.763Z,12.36
2019-05-11T09:35:47.574Z,12.33
2019-05-11T09:36:38.818Z,12.31
2019-05-11T09:37:38.070Z,12.38
2019-05-11T09:38:38.351Z,12.33
2019-05-11T09:39:38.316Z,12.31
2019-05-11T09:40:38.598Z,12.36
2019-05-11T09:41:38.318Z,12.37
2019-05-11T09:42:38.861Z,12.41
2019-05-11T09:43:37.643Z,12.22
2019-05-11T09:44:38.007Z,12.38
2019-05-11T09:45:45.804Z,12.33
2019-05-11T09:46:38.431Z,12.36
2019-05-11T09:47:38.626Z,12.36
2019-05-11T09:48:37.813Z,12.48
2019-05-11T09:49:44.849Z,12.37
2019-05-11T09:50:38.825Z,12.33
2019-05-11T09:51:37.969Z,12.34
2019-05-11T09:52:38.500Z,12.36
2019-05-11T09:53:38.683Z,12.30
2019-05-11T09:54:38.189Z,12.29
2019-05-11T09:55:38.722Z,12.37
2019-05-11T09:56:38.178Z,12.36
2019-05-11T09:57:38.188Z,12.29
2019-05-11T09:58:38.612Z,12.19
2019-05-11T09:59:38.551Z,12.38
2019-05-11T10:00:38.729Z,12.34
2019-05-11T10:01:37.847Z,12.31
2019-05-11T10:02:38.497Z,12.31
2019-05-11T10:03:38.739Z,12.38
2019-05-11T10:04:38.012Z,12.34
2019-05-11T10:05:38.303Z,12.36
2019-05-11T10:06:38.725Z,12.37
2019-05-11T10:07:38.047Z,12.33
2019-05-11T10:08:38.130Z,12.33
2019-05-11T10:09:38.327Z,12.37
2019-05-11T10:10:38.332Z,12.43
2019-05-11T10:11:36.423Z,12.40
2019-05-11T10:12:38.045Z,12.37
2019-05-11T10:13:38.459Z,12.43
2019-05-11T10:14:37.992Z,12.56
2019-05-11T10:15:38.467Z,12.41
2019-05-11T10:16:38.556Z,12.51
2019-05-11T10:17:38.289Z,12.55
2019-05-11T10:18:38.397Z,12.48
2019-05-11T10:19:36.347Z,12.49
2019-05-11T10:20:36.316Z,12.55
2019-05-11T10:21:38.403Z,12.46
2019-05-11T10:22:38.507Z,12.41
2019-05-11T10:23:38.606Z,12.51
2019-05-11T10:24:38.452Z,12.43
2019-05-11T10:25:36.273Z,12.46
2019-05-11T10:26:38.363Z,12.44
2019-05-11T10:27:38.296Z,12.40
2019-05-11T10:28:38.754Z,12.34
2019-05-11T10:29:38.277Z,12.40
2019-05-11T10:30:38.417Z,12.19
2019-05-11T10:31:38.381Z,12.23
2019-05-11T10:32:37.941Z,12.25
2019-05-11T10:33:38.211Z,12.11
2019-05-11T10:34:38.456Z,12.16
2019-05-11T10:35:37.837Z,12.13
2019-05-11T10:36:38.338Z,12.29
2019-05-11T10:37:38.703Z,12.15
2019-05-11T10:38:37.930Z,12.37
2019-05-11T10:39:38.185Z,12.36
2019-05-11T10:40:38.592Z,12.36
2019-05-11T10:41:38.564Z,12.36
2019-05-11T10:42:37.921Z,12.43
2019-05-11T10:43:37.981Z,12.43
2019-05-11T10:44:38.370Z,12.33
2019-05-11T10:45:37.857Z,12.36
2019-05-11T10:46:38.069Z,12.21
2019-05-11T10:47:38.160Z,12.34
2019-05-11T10:48:36.014Z,12.38
2019-05-11T10:49:37.993Z,12.36
2019-05-11T10:50:38.029Z,12.36
2019-05-11T10:51:38.112Z,12.36
2019-05-11T10:52:37.847Z,12.40
2019-05-11T10:53:38.253Z,12.33
2019-05-11T10:54:39.209Z,12.29
2019-05-11T10:55:38.363Z,12.34
2019-05-11T10:56:35.938Z,12.43
2019-05-11T10:57:38.432Z,12.44
2019-05-11T10:58:37.919Z,12.48
2019-05-11T10:59:38.597Z,12.44
2019-05-11T11:00:35.914Z,12.46
2019-05-11T11:01:38.039Z,12.46
2019-05-11T11:02:38.234Z,12.40
2019-05-11T11:03:37.780Z,12.49
2019-05-11T11:04:37.904Z,12.52
2019-05-11T11:05:38.261Z,12.62
2019-05-11T11:06:35.825Z,12.63
2019-05-11T11:07:38.141Z,12.70
2019-05-11T11:08:38.128Z,12.66
2019-05-11T11:09:35.780Z,12.84
2019-05-11T11:10:37.882Z,12.80
2019-05-11T11:11:38.057Z,12.91
2019-05-11T11:12:35.746Z,12.88
2019-05-11T11:13:35.740Z,12.88
2019-05-11T11:14:37.732Z,12.92
2019-05-11T11:15:37.917Z,12.98
2019-05-11T11:16:39.639Z,13.03
2019-05-11T11:17:38.248Z,12.98
2019-05-11T11:18:37.959Z,12.98
2019-05-11T11:19:37.967Z,12.99
2019-05-11T11:20:35.659Z,13.12
2019-05-11T11:21:38.184Z,13.14
2019-05-11T11:22:40.146Z,13.22
2019-05-11T11:23:38.508Z,13.32
2019-05-11T11:24:37.514Z,13.47
2019-05-11T11:25:37.537Z,13.31
2019-05-11T11:26:37.789Z,13.47
2019-05-11T11:27:37.920Z,13.28
2019-05-11T11:28:35.573Z,13.27
2019-05-11T11:29:35.568Z,13.17
2019-05-11T11:30:37.727Z,13.07
2019-05-11T11:31:37.422Z,13.14
2019-05-11T11:32:38.108Z,13.03
2019-05-11T11:33:35.518Z,13.10
2019-05-11T11:34:35.510Z,13.14
2019-05-11T11:35:35.502Z,13.25
2019-05-11T11:36:37.480Z,13.44
2019-05-11T11:37:35.538Z,13.47
2019-05-11T11:38:37.473Z,13.50
2019-05-11T11:39:35.453Z,13.50
2019-05-11T11:40:35.440Z,13.57
2019-05-11T11:41:37.757Z,13.50
2019-05-11T11:42:37.597Z,13.61
2019-05-11T11:43:37.620Z,13.65
2019-05-11T11:44:37.851Z,13.61
2019-05-11T11:45:35.388Z,13.65
2019-05-11T11:46:48.514Z,13.55
2019-05-11T11:47:38.425Z,13.59
2019-05-11T11:48:35.361Z,13.62
2019-05-11T11:49:35.348Z,13.69
2019-05-11T11:50:37.568Z,13.68
2019-05-11T11:51:37.648Z,13.61
2019-05-11T11:52:35.332Z,13.61
2019-05-11T11:53:35.307Z,13.65
2019-05-11T11:54:35.289Z,13.68
2019-05-11T11:55:35.281Z,13.71
2019-05-11T11:56:37.741Z,13.66
2019-05-11T11:57:37.802Z,13.66
2019-05-11T11:58:35.246Z,13.71
2019-05-11T11:59:35.237Z,13.73
2019-05-11T12:00:35.225Z,13.86
2019-05-11T12:01:35.219Z,13.87
2019-05-11T12:02:35.200Z,13.96
2019-05-11T12:03:35.212Z,14.09
2019-05-11T12:04:35.177Z,14.21
2019-05-11T12:05:35.174Z,14.21
2019-05-11T12:06:35.158Z,14.30
2019-05-11T12:07:35.152Z,14.31
2019-05-11T12:08:35.139Z,14.31
2019-05-11T12:09:37.652Z,14.30
2019-05-11T12:10:35.118Z,14.35
2019-05-11T12:11:35.105Z,14.36
2019-05-11T12:12:35.096Z,14.42
2019-05-11T12:13:35.115Z,14.36
2019-05-11T12:14:35.070Z,14.34
2019-05-11T12:15:35.075Z,14.41
2019-05-11T12:16:35.050Z,14.42
2019-05-11T12:17:35.039Z,14.42
2019-05-11T12:18:35.034Z,14.42
2019-05-11T12:19:35.022Z,14.42
2019-05-11T12:20:35.025Z,14.34
2019-05-11T12:21:35.009Z,14.29
2019-05-11T12:22:34.985Z,14.31
2019-05-11T12:23:34.973Z,14.35
2019-05-11T12:24:34.970Z,14.35
2019-05-11T12:25:38.254Z,14.30
2019-05-11T12:26:35.939Z,14.48
2019-05-11T12:27:34.937Z,14.60
2019-05-11T12:28:34.929Z,14.66
2019-05-11T12:29:34.944Z,14.67
2019-05-11T12:30:34.922Z,14.63
2019-05-11T12:31:34.889Z,14.60
2019-05-11T12:32:34.881Z,14.45
2019-05-11T12:33:34.879Z,14.39
2019-05-11T12:34:34.858Z,14.36
2019-05-11T12:35:34.873Z,14.42
2019-05-11T12:36:34.839Z,14.35
2019-05-11T12:37:34.825Z,14.31
2019-05-11T12:38:34.827Z,14.34
2019-05-11T12:39:34.802Z,14.31
2019-05-11T12:40:34.794Z,14.20
2019-05-11T12:41:34.794Z,14.12
2019-05-11T12:42:34.769Z,14.02
2019-05-11T12:43:34.760Z,14.06
2019-05-11T12:44:34.745Z,14.02
2019-05-11T12:45:34.751Z,13.96
2019-05-11T12:46:36.789Z,14.01
2019-05-11T12:47:34.722Z,14.17
2019-05-11T12:48:34.702Z,14.21
2019-05-11T12:49:34.697Z,14.20
2019-05-11T12:50:34.695Z,14.20
2019-05-11T12:51:34.716Z,14.19
2019-05-11T12:52:34.657Z,14.29
2019-05-11T12:53:34.647Z,14.21
2019-05-11T12:54:34.647Z,14.17
2019-05-11T12:55:34.634Z,14.16
2019-05-11T12:56:34.647Z,14.19
2019-05-11T12:57:34.629Z,14.13
2019-05-11T12:58:34.594Z,14.12
2019-05-11T12:59:34.582Z,14.17
2019-05-11T13:00:34.580Z,14.13
2019-05-11T13:01:34.636Z,14.02
2019-05-11T13:02:34.550Z,13.98
2019-05-11T13:03:34.540Z,14.06
2019-05-11T13:04:34.530Z,13.99
2019-05-11T13:05:34.517Z,13.91
2019-05-11T13:06:34.531Z,13.91